sensor_id;sensor_type;location;lat;lon;timestamp;P1;durP1;ratioP1;P2;durP2;ratioP2
1010;SDS011;494;48.744;10.106;2023-06-22T00:02:17;33.20;;;14.53;;
1010;SDS011;494;48.744;10.106;2023-06-22T00:04:46;24.50;;;13.87;;
1010;SDS011;494;48.744;10.106;2023-06-22T00:07:16;27.30;;;14.20;;
1010;SDS011;494;48.744;10.106;2023-06-22T00:09:45;26.87;;;13.90;;
1010;SDS011;494;48.744;10.106;2023-06-22T00:12:14;28.73;;;13.93;;
1010;SDS011;494;48.744;10.106;2023-06-22T00:14:42;26.87;;;13.80;;
1010;SDS011;494;48.744;10.106;2023-06-22T00:17:11;25.40;;;13.60;;
1010;SDS011;494;48.744;10.106;2023-06-22T00:19:40;24.70;;;13.60;;
1010;SDS011;494;48.744;10.106;2023-06-22T00:22:09;26.77;;;15.30;;
1010;SDS011;494;48.744;10.106;2023-06-22T00:24:40;28.87;;;14.50;;
1010;SDS011;494;48.744;10.106;2023-06-22T00:27:08;23.47;;;12.87;;
1010;SDS011;494;48.744;10.106;2023-06-22T00:29:37;27.13;;;13.33;;
1010;SDS011;494;48.744;10.106;2023-06-22T00:32:06;24.37;;;12.73;;
1010;SDS011;494;48.744;10.106;2023-06-22T00:34:35;25.90;;;13.30;;
1010;SDS011;494;48.744;10.106;2023-06-22T00:37:03;22.07;;;12.43;;
1010;SDS011;494;48.744;10.106;2023-06-22T00:39:32;24.87;;;13.30;;
1010;SDS011;494;48.744;10.106;2023-06-22T00:42:03;23.10;;;13.17;;
1010;SDS011;494;48.744;10.106;2023-06-22T00:44:32;24.40;;;13.77;;
1010;SDS011;494;48.744;10.106;2023-06-22T00:47:00;23.97;;;14.03;;
1010;SDS011;494;48.744;10.106;2023-06-22T00:49:30;27.40;;;13.40;;
1010;SDS011;494;48.744;10.106;2023-06-22T00:51:59;25.93;;;13.10;;
1010;SDS011;494;48.744;10.106;2023-06-22T00:54:28;28.33;;;12.53;;
1010;SDS011;494;48.744;10.106;2023-06-22T00:56:57;26.73;;;13.87;;
1010;SDS011;494;48.744;10.106;2023-06-22T00:59:28;26.47;;;13.43;;
1010;SDS011;494;48.744;10.106;2023-06-22T01:01:56;24.20;;;13.03;;
1010;SDS011;494;48.744;10.106;2023-06-22T01:04:34;26.60;;;13.07;;
1010;SDS011;494;48.744;10.106;2023-06-22T01:07:07;26.30;;;12.63;;
1010;SDS011;494;48.744;10.106;2023-06-22T01:09:51;27.80;;;13.10;;
1010;SDS011;494;48.744;10.106;2023-06-22T01:12:30;23.47;;;12.67;;
1010;SDS011;494;48.744;10.106;2023-06-22T01:15:08;24.13;;;13.60;;
1010;SDS011;494;48.744;10.106;2023-06-22T01:17:46;22.60;;;13.00;;
1010;SDS011;494;48.744;10.106;2023-06-22T01:20:19;22.73;;;13.00;;
1010;SDS011;494;48.744;10.106;2023-06-22T01:22:55;25.53;;;13.27;;
1010;SDS011;494;48.744;10.106;2023-06-22T01:25:43;23.33;;;12.00;;
1010;SDS011;494;48.744;10.106;2023-06-22T01:31:16;21.83;;;12.50;;
1010;SDS011;494;48.744;10.106;2023-06-22T01:33:50;24.20;;;12.60;;
1010;SDS011;494;48.744;10.106;2023-06-22T01:36:24;24.60;;;12.70;;
1010;SDS011;494;48.744;10.106;2023-06-22T01:38:55;23.53;;;12.27;;
1010;SDS011;494;48.744;10.106;2023-06-22T01:41:27;21.93;;;12.80;;
1010;SDS011;494;48.744;10.106;2023-06-22T01:44:00;27.17;;;12.90;;
1010;SDS011;494;48.744;10.106;2023-06-22T01:46:32;23.70;;;12.33;;
1010;SDS011;494;48.744;10.106;2023-06-22T01:49:02;23.77;;;11.50;;
1010;SDS011;494;48.744;10.106;2023-06-22T01:51:32;34.80;;;12.80;;
1010;SDS011;494;48.744;10.106;2023-06-22T01:54:01;21.73;;;12.53;;
1010;SDS011;494;48.744;10.106;2023-06-22T01:56:30;22.00;;;12.73;;
1010;SDS011;494;48.744;10.106;2023-06-22T01:59:03;22.90;;;12.50;;
1010;SDS011;494;48.744;10.106;2023-06-22T02:01:41;24.20;;;13.17;;
1010;SDS011;494;48.744;10.106;2023-06-22T02:04:18;22.50;;;12.30;;
1010;SDS011;494;48.744;10.106;2023-06-22T02:06:54;24.60;;;12.90;;
1010;SDS011;494;48.744;10.106;2023-06-22T02:09:29;23.03;;;12.03;;
1010;SDS011;494;48.744;10.106;2023-06-22T02:11:59;21.00;;;12.83;;
1010;SDS011;494;48.744;10.106;2023-06-22T02:14:32;20.57;;;11.80;;
1010;SDS011;494;48.744;10.106;2023-06-22T02:17:03;21.03;;;11.80;;
1010;SDS011;494;48.744;10.106;2023-06-22T02:19:35;23.20;;;12.10;;
1010;SDS011;494;48.744;10.106;2023-06-22T02:22:04;19.23;;;11.90;;
1010;SDS011;494;48.744;10.106;2023-06-22T02:24:33;19.90;;;11.93;;
1010;SDS011;494;48.744;10.106;2023-06-22T02:27:02;24.40;;;12.47;;
1010;SDS011;494;48.744;10.106;2023-06-22T02:29:34;22.73;;;12.33;;
1010;SDS011;494;48.744;10.106;2023-06-22T02:32:03;25.33;;;12.03;;
1010;SDS011;494;48.744;10.106;2023-06-22T02:34:33;22.00;;;12.10;;
1010;SDS011;494;48.744;10.106;2023-06-22T02:37:03;23.77;;;12.33;;
1010;SDS011;494;48.744;10.106;2023-06-22T02:39:32;22.93;;;12.33;;
1010;SDS011;494;48.744;10.106;2023-06-22T02:42:01;24.67;;;11.87;;
1010;SDS011;494;48.744;10.106;2023-06-22T02:44:30;21.67;;;12.00;;
1010;SDS011;494;48.744;10.106;2023-06-22T02:47:00;24.43;;;11.87;;
1010;SDS011;494;48.744;10.106;2023-06-22T02:49:36;29.80;;;12.73;;
1010;SDS011;494;48.744;10.106;2023-06-22T02:52:04;23.97;;;12.47;;
1010;SDS011;494;48.744;10.106;2023-06-22T02:54:33;21.87;;;12.47;;
1010;SDS011;494;48.744;10.106;2023-06-22T02:57:02;28.10;;;12.90;;
1010;SDS011;494;48.744;10.106;2023-06-22T02:59:32;22.40;;;11.23;;
1010;SDS011;494;48.744;10.106;2023-06-22T03:02:02;21.27;;;12.00;;
1010;SDS011;494;48.744;10.106;2023-06-22T03:04:31;23.03;;;11.50;;
1010;SDS011;494;48.744;10.106;2023-06-22T03:07:00;20.27;;;10.93;;
1010;SDS011;494;48.744;10.106;2023-06-22T03:09:32;21.63;;;11.80;;
1010;SDS011;494;48.744;10.106;2023-06-22T03:12:00;22.90;;;12.57;;
1010;SDS011;494;48.744;10.106;2023-06-22T03:14:29;21.00;;;11.90;;
1010;SDS011;494;48.744;10.106;2023-06-22T03:16:58;21.83;;;11.57;;
1010;SDS011;494;48.744;10.106;2023-06-22T03:19:31;24.37;;;11.20;;
1010;SDS011;494;48.744;10.106;2023-06-22T03:21:59;21.80;;;11.13;;
1010;SDS011;494;48.744;10.106;2023-06-22T03:24:28;26.20;;;12.00;;
1010;SDS011;494;48.744;10.106;2023-06-22T03:26:57;26.43;;;11.60;;
1010;SDS011;494;48.744;10.106;2023-06-22T03:29:26;27.60;;;12.03;;
1010;SDS011;494;48.744;10.106;2023-06-22T03:31:57;24.67;;;11.60;;
1010;SDS011;494;48.744;10.106;2023-06-22T03:34:26;20.03;;;11.47;;
1010;SDS011;494;48.744;10.106;2023-06-22T03:36:56;22.33;;;12.30;;
1010;SDS011;494;48.744;10.106;2023-06-22T03:39:25;22.50;;;11.13;;
1010;SDS011;494;48.744;10.106;2023-06-22T03:41:54;19.30;;;11.00;;
1010;SDS011;494;48.744;10.106;2023-06-22T03:44:22;20.17;;;10.67;;
1010;SDS011;494;48.744;10.106;2023-06-22T03:46:51;19.80;;;11.10;;
1010;SDS011;494;48.744;10.106;2023-06-22T03:49:19;21.30;;;10.60;;
1010;SDS011;494;48.744;10.106;2023-06-22T03:51:48;22.33;;;11.63;;
1010;SDS011;494;48.744;10.106;2023-06-22T03:54:18;26.53;;;12.00;;
1010;SDS011;494;48.744;10.106;2023-06-22T03:56:47;18.90;;;10.23;;
1010;SDS011;494;48.744;10.106;2023-06-22T03:59:15;21.43;;;11.87;;
1010;SDS011;494;48.744;10.106;2023-06-22T04:01:44;21.30;;;11.60;;
1010;SDS011;494;48.744;10.106;2023-06-22T04:04:13;20.57;;;10.50;;
1010;SDS011;494;48.744;10.106;2023-06-22T04:06:42;20.80;;;11.23;;
1010;SDS011;494;48.744;10.106;2023-06-22T04:09:11;21.10;;;11.20;;
1010;SDS011;494;48.744;10.106;2023-06-22T04:11:42;23.00;;;11.47;;
1010;SDS011;494;48.744;10.106;2023-06-22T04:14:10;26.63;;;12.60;;
1010;SDS011;494;48.744;10.106;2023-06-22T04:16:39;19.83;;;11.33;;
1010;SDS011;494;48.744;10.106;2023-06-22T04:19:07;23.13;;;12.87;;
1010;SDS011;494;48.744;10.106;2023-06-22T04:21:42;23.10;;;12.50;;
1010;SDS011;494;48.744;10.106;2023-06-22T04:24:12;22.47;;;11.20;;
1010;SDS011;494;48.744;10.106;2023-06-22T04:26:42;23.03;;;12.40;;
1010;SDS011;494;48.744;10.106;2023-06-22T04:29:12;20.70;;;11.13;;
1010;SDS011;494;48.744;10.106;2023-06-22T04:31:42;20.20;;;11.13;;
1010;SDS011;494;48.744;10.106;2023-06-22T04:34:11;21.23;;;11.10;;
1010;SDS011;494;48.744;10.106;2023-06-22T04:36:42;20.77;;;10.50;;
1010;SDS011;494;48.744;10.106;2023-06-22T04:39:11;22.43;;;11.50;;
1010;SDS011;494;48.744;10.106;2023-06-22T04:41:42;19.90;;;9.77;;
1010;SDS011;494;48.744;10.106;2023-06-22T04:44:10;19.10;;;9.97;;
1010;SDS011;494;48.744;10.106;2023-06-22T04:46:39;18.57;;;10.50;;
1010;SDS011;494;48.744;10.106;2023-06-22T04:49:09;21.53;;;10.87;;
1010;SDS011;494;48.744;10.106;2023-06-22T04:51:39;19.20;;;10.80;;
1010;SDS011;494;48.744;10.106;2023-06-22T04:54:08;20.27;;;11.17;;
1010;SDS011;494;48.744;10.106;2023-06-22T04:56:38;21.17;;;11.93;;
1010;SDS011;494;48.744;10.106;2023-06-22T04:59:08;28.37;;;12.13;;
1010;SDS011;494;48.744;10.106;2023-06-22T05:01:39;21.90;;;12.07;;
1010;SDS011;494;48.744;10.106;2023-06-22T05:04:08;22.37;;;12.03;;
1010;SDS011;494;48.744;10.106;2023-06-22T05:06:37;27.67;;;13.00;;
1010;SDS011;494;48.744;10.106;2023-06-22T05:09:06;24.50;;;13.10;;
1010;SDS011;494;48.744;10.106;2023-06-22T05:11:35;27.20;;;12.83;;
1010;SDS011;494;48.744;10.106;2023-06-22T05:14:04;27.30;;;13.43;;
1010;SDS011;494;48.744;10.106;2023-06-22T05:16:35;24.40;;;14.50;;
1010;SDS011;494;48.744;10.106;2023-06-22T05:19:04;27.57;;;14.47;;
1010;SDS011;494;48.744;10.106;2023-06-22T05:21:33;27.80;;;14.57;;
1010;SDS011;494;48.744;10.106;2023-06-22T05:24:02;30.10;;;15.80;;
1010;SDS011;494;48.744;10.106;2023-06-22T05:26:33;30.90;;;16.43;;
1010;SDS011;494;48.744;10.106;2023-06-22T05:29:02;39.37;;;16.80;;
1010;SDS011;494;48.744;10.106;2023-06-22T05:31:31;33.17;;;16.73;;
1010;SDS011;494;48.744;10.106;2023-06-22T05:34:01;39.07;;;17.43;;
1010;SDS011;494;48.744;10.106;2023-06-22T05:36:30;42.40;;;16.50;;
1010;SDS011;494;48.744;10.106;2023-06-22T05:39:09;40.10;;;16.07;;
1010;SDS011;494;48.744;10.106;2023-06-22T05:41:42;42.20;;;16.23;;
1010;SDS011;494;48.744;10.106;2023-06-22T05:44:13;30.70;;;15.57;;
1010;SDS011;494;48.744;10.106;2023-06-22T05:46:45;35.77;;;16.53;;
1010;SDS011;494;48.744;10.106;2023-06-22T05:49:16;35.10;;;15.80;;
1010;SDS011;494;48.744;10.106;2023-06-22T05:51:45;38.97;;;15.17;;
1010;SDS011;494;48.744;10.106;2023-06-22T05:54:23;40.80;;;15.63;;
1010;SDS011;494;48.744;10.106;2023-06-22T05:56:53;38.10;;;15.77;;
1010;SDS011;494;48.744;10.106;2023-06-22T05:59:22;29.07;;;13.30;;
1010;SDS011;494;48.744;10.106;2023-06-22T06:01:51;33.00;;;13.20;;
1010;SDS011;494;48.744;10.106;2023-06-22T06:04:21;27.83;;;12.87;;
1010;SDS011;494;48.744;10.106;2023-06-22T06:06:50;35.27;;;13.73;;
1010;SDS011;494;48.744;10.106;2023-06-22T06:09:19;33.67;;;13.03;;
1010;SDS011;494;48.744;10.106;2023-06-22T06:11:48;37.30;;;12.70;;
1010;SDS011;494;48.744;10.106;2023-06-22T06:14:17;33.93;;;12.50;;
1010;SDS011;494;48.744;10.106;2023-06-22T06:16:48;27.63;;;12.13;;
1010;SDS011;494;48.744;10.106;2023-06-22T06:19:17;29.13;;;12.83;;
1010;SDS011;494;48.744;10.106;2023-06-22T06:21:48;28.97;;;11.83;;
1010;SDS011;494;48.744;10.106;2023-06-22T06:24:17;27.43;;;12.00;;
1010;SDS011;494;48.744;10.106;2023-06-22T06:26:45;27.80;;;11.30;;
1010;SDS011;494;48.744;10.106;2023-06-22T06:29:16;30.40;;;11.23;;
1010;SDS011;494;48.744;10.106;2023-06-22T06:31:45;32.00;;;11.40;;
1010;SDS011;494;48.744;10.106;2023-06-22T06:34:14;34.77;;;12.47;;
1010;SDS011;494;48.744;10.106;2023-06-22T06:36:43;27.83;;;11.50;;
1010;SDS011;494;48.744;10.106;2023-06-22T06:39:14;34.60;;;11.30;;
1010;SDS011;494;48.744;10.106;2023-06-22T06:41:43;32.40;;;10.73;;
1010;SDS011;494;48.744;10.106;2023-06-22T06:44:12;38.33;;;10.83;;
1010;SDS011;494;48.744;10.106;2023-06-22T06:46:40;26.50;;;9.67;;
1010;SDS011;494;48.744;10.106;2023-06-22T06:49:09;27.67;;;9.63;;
1010;SDS011;494;48.744;10.106;2023-06-22T06:51:38;28.23;;;9.87;;
1010;SDS011;494;48.744;10.106;2023-06-22T06:54:07;20.77;;;8.17;;
1010;SDS011;494;48.744;10.106;2023-06-22T06:56:38;21.60;;;7.37;;
1010;SDS011;494;48.744;10.106;2023-06-22T06:59:06;18.93;;;8.00;;
1010;SDS011;494;48.744;10.106;2023-06-22T07:01:35;16.30;;;6.97;;
1010;SDS011;494;48.744;10.106;2023-06-22T07:04:04;17.20;;;7.37;;
1010;SDS011;494;48.744;10.106;2023-06-22T07:06:32;20.03;;;7.10;;
1010;SDS011;494;48.744;10.106;2023-06-22T07:09:01;21.27;;;8.17;;
1010;SDS011;494;48.744;10.106;2023-06-22T07:11:30;18.20;;;7.30;;
1010;SDS011;494;48.744;10.106;2023-06-22T07:14:01;18.70;;;7.50;;
1010;SDS011;494;48.744;10.106;2023-06-22T07:16:29;15.90;;;6.90;;
1010;SDS011;494;48.744;10.106;2023-06-22T07:18:59;18.17;;;7.20;;
1010;SDS011;494;48.744;10.106;2023-06-22T07:21:28;20.60;;;6.63;;
1010;SDS011;494;48.744;10.106;2023-06-22T07:23:56;24.53;;;6.80;;
1010;SDS011;494;48.744;10.106;2023-06-22T07:26:25;19.97;;;6.57;;
1010;SDS011;494;48.744;10.106;2023-06-22T07:28:54;19.20;;;6.83;;
1010;SDS011;494;48.744;10.106;2023-06-22T07:31:25;19.23;;;6.87;;
1010;SDS011;494;48.744;10.106;2023-06-22T07:33:54;19.13;;;6.93;;
1010;SDS011;494;48.744;10.106;2023-06-22T07:36:22;20.47;;;6.67;;
1010;SDS011;494;48.744;10.106;2023-06-22T07:38:51;23.93;;;6.93;;
1010;SDS011;494;48.744;10.106;2023-06-22T07:41:19;20.30;;;7.50;;
1010;SDS011;494;48.744;10.106;2023-06-22T07:43:49;19.23;;;6.90;;
1010;SDS011;494;48.744;10.106;2023-06-22T07:46:18;17.67;;;6.60;;
1010;SDS011;494;48.744;10.106;2023-06-22T07:48:48;23.00;;;6.80;;
1010;SDS011;494;48.744;10.106;2023-06-22T07:51:19;20.67;;;7.00;;
1010;SDS011;494;48.744;10.106;2023-06-22T07:53:48;21.53;;;6.70;;
1010;SDS011;494;48.744;10.106;2023-06-22T07:56:16;21.23;;;7.57;;
1010;SDS011;494;48.744;10.106;2023-06-22T07:58:46;22.77;;;7.80;;
1010;SDS011;494;48.744;10.106;2023-06-22T08:01:15;21.93;;;8.07;;
1010;SDS011;494;48.744;10.106;2023-06-22T08:03:49;23.17;;;7.90;;
1010;SDS011;494;48.744;10.106;2023-06-22T08:06:18;21.70;;;7.63;;
1010;SDS011;494;48.744;10.106;2023-06-22T08:08:47;19.07;;;7.70;;
1010;SDS011;494;48.744;10.106;2023-06-22T08:11:16;23.93;;;8.30;;
1010;SDS011;494;48.744;10.106;2023-06-22T08:13:45;26.80;;;8.23;;
1010;SDS011;494;48.744;10.106;2023-06-22T08:16:13;30.07;;;9.13;;
1010;SDS011;494;48.744;10.106;2023-06-22T08:18:43;27.97;;;9.47;;
1010;SDS011;494;48.744;10.106;2023-06-22T08:21:13;23.70;;;9.07;;
1010;SDS011;494;48.744;10.106;2023-06-22T08:23:42;25.70;;;9.63;;
1010;SDS011;494;48.744;10.106;2023-06-22T08:26:11;23.50;;;9.60;;
1010;SDS011;494;48.744;10.106;2023-06-22T08:28:40;20.70;;;9.47;;
1010;SDS011;494;48.744;10.106;2023-06-22T08:31:09;25.63;;;9.83;;
1010;SDS011;494;48.744;10.106;2023-06-22T08:33:38;25.27;;;10.73;;
1010;SDS011;494;48.744;10.106;2023-06-22T08:36:16;23.07;;;11.13;;
1010;SDS011;494;48.744;10.106;2023-06-22T08:38:45;24.63;;;10.80;;
1010;SDS011;494;48.744;10.106;2023-06-22T08:41:17;25.23;;;10.50;;
1010;SDS011;494;48.744;10.106;2023-06-22T08:43:46;26.23;;;10.97;;
1010;SDS011;494;48.744;10.106;2023-06-22T08:46:14;25.73;;;10.33;;
1010;SDS011;494;48.744;10.106;2023-06-22T08:48:46;27.53;;;10.60;;
1010;SDS011;494;48.744;10.106;2023-06-22T08:51:17;31.07;;;11.40;;
1010;SDS011;494;48.744;10.106;2023-06-22T08:53:45;26.67;;;10.60;;
1010;SDS011;494;48.744;10.106;2023-06-22T08:56:14;28.97;;;11.60;;
1010;SDS011;494;48.744;10.106;2023-06-22T08:58:43;26.63;;;11.83;;
1010;SDS011;494;48.744;10.106;2023-06-22T09:01:12;26.40;;;10.47;;
1010;SDS011;494;48.744;10.106;2023-06-22T09:03:42;25.50;;;10.90;;
1010;SDS011;494;48.744;10.106;2023-06-22T09:06:11;27.43;;;11.90;;
1010;SDS011;494;48.744;10.106;2023-06-22T09:08:42;27.50;;;11.50;;
1010;SDS011;494;48.744;10.106;2023-06-22T09:11:11;24.57;;;10.87;;
1010;SDS011;494;48.744;10.106;2023-06-22T09:13:40;27.40;;;11.47;;
1010;SDS011;494;48.744;10.106;2023-06-22T09:16:08;29.27;;;11.00;;
1010;SDS011;494;48.744;10.106;2023-06-22T09:18:38;26.27;;;11.70;;
1010;SDS011;494;48.744;10.106;2023-06-22T09:21:06;28.13;;;11.50;;
1010;SDS011;494;48.744;10.106;2023-06-22T09:23:35;25.90;;;11.77;;
1010;SDS011;494;48.744;10.106;2023-06-22T09:26:05;25.57;;;11.77;;
1010;SDS011;494;48.744;10.106;2023-06-22T09:28:35;24.67;;;11.27;;
1010;SDS011;494;48.744;10.106;2023-06-22T09:31:03;26.90;;;11.30;;
1010;SDS011;494;48.744;10.106;2023-06-22T09:33:33;24.43;;;10.90;;
1010;SDS011;494;48.744;10.106;2023-06-22T09:36:02;28.50;;;12.60;;
1010;SDS011;494;48.744;10.106;2023-06-22T09:38:34;24.00;;;11.43;;
1010;SDS011;494;48.744;10.106;2023-06-22T09:41:03;32.50;;;12.60;;
1010;SDS011;494;48.744;10.106;2023-06-22T09:43:33;29.20;;;12.23;;
1010;SDS011;494;48.744;10.106;2023-06-22T09:46:02;28.67;;;11.67;;
1010;SDS011;494;48.744;10.106;2023-06-22T09:48:33;34.43;;;11.80;;
1010;SDS011;494;48.744;10.106;2023-06-22T09:51:06;33.07;;;11.70;;
1010;SDS011;494;48.744;10.106;2023-06-22T09:53:35;25.83;;;11.70;;
1010;SDS011;494;48.744;10.106;2023-06-22T09:56:04;31.17;;;11.43;;
1010;SDS011;494;48.744;10.106;2023-06-22T09:58:40;25.30;;;11.50;;
1010;SDS011;494;48.744;10.106;2023-06-22T10:01:10;27.40;;;11.53;;
1010;SDS011;494;48.744;10.106;2023-06-22T10:03:39;37.07;;;13.60;;
1010;SDS011;494;48.744;10.106;2023-06-22T10:06:08;29.60;;;12.50;;
1010;SDS011;494;48.744;10.106;2023-06-22T10:08:37;29.67;;;11.83;;
1010;SDS011;494;48.744;10.106;2023-06-22T10:11:07;26.63;;;11.50;;
1010;SDS011;494;48.744;10.106;2023-06-22T10:13:36;25.23;;;11.60;;
1010;SDS011;494;48.744;10.106;2023-06-22T10:16:06;26.50;;;11.60;;
1010;SDS011;494;48.744;10.106;2023-06-22T10:18:35;28.20;;;11.40;;
1010;SDS011;494;48.744;10.106;2023-06-22T10:21:04;28.17;;;12.17;;
1010;SDS011;494;48.744;10.106;2023-06-22T10:23:32;26.27;;;11.90;;
1010;SDS011;494;48.744;10.106;2023-06-22T10:26:01;31.13;;;13.40;;
1010;SDS011;494;48.744;10.106;2023-06-22T10:28:30;26.23;;;11.90;;
1010;SDS011;494;48.744;10.106;2023-06-22T10:30:59;26.50;;;11.67;;
1010;SDS011;494;48.744;10.106;2023-06-22T10:33:29;26.17;;;12.47;;
1010;SDS011;494;48.744;10.106;2023-06-22T10:35:58;30.63;;;12.87;;
1010;SDS011;494;48.744;10.106;2023-06-22T10:38:26;26.43;;;12.13;;
1010;SDS011;494;48.744;10.106;2023-06-22T10:40:55;26.50;;;13.10;;
1010;SDS011;494;48.744;10.106;2023-06-22T10:43:24;31.93;;;13.43;;
1010;SDS011;494;48.744;10.106;2023-06-22T10:45:55;29.60;;;13.80;;
1010;SDS011;494;48.744;10.106;2023-06-22T10:48:24;27.73;;;12.53;;
1010;SDS011;494;48.744;10.106;2023-06-22T10:50:54;27.50;;;13.80;;
1010;SDS011;494;48.744;10.106;2023-06-22T10:53:23;26.80;;;12.43;;
1010;SDS011;494;48.744;10.106;2023-06-22T10:55:52;30.57;;;13.03;;
1010;SDS011;494;48.744;10.106;2023-06-22T10:58:23;27.10;;;12.80;;
1010;SDS011;494;48.744;10.106;2023-06-22T11:00:52;24.93;;;12.47;;
1010;SDS011;494;48.744;10.106;2023-06-22T11:03:20;30.33;;;13.43;;
1010;SDS011;494;48.744;10.106;2023-06-22T11:05:49;29.20;;;12.90;;
1010;SDS011;494;48.744;10.106;2023-06-22T11:08:20;28.03;;;12.50;;
1010;SDS011;494;48.744;10.106;2023-06-22T11:10:48;31.83;;;12.57;;
1010;SDS011;494;48.744;10.106;2023-06-22T11:13:19;35.67;;;13.67;;
1010;SDS011;494;48.744;10.106;2023-06-22T11:15:48;30.97;;;12.30;;
1010;SDS011;494;48.744;10.106;2023-06-22T11:18:16;28.00;;;12.57;;
1010;SDS011;494;48.744;10.106;2023-06-22T11:20:45;26.70;;;12.90;;
1010;SDS011;494;48.744;10.106;2023-06-22T11:23:20;30.00;;;13.00;;
1010;SDS011;494;48.744;10.106;2023-06-22T11:25:48;26.80;;;12.10;;
1010;SDS011;494;48.744;10.106;2023-06-22T11:28:17;29.47;;;12.63;;
1010;SDS011;494;48.744;10.106;2023-06-22T11:30:46;28.60;;;12.10;;
1010;SDS011;494;48.744;10.106;2023-06-22T11:33:14;30.27;;;12.40;;
1010;SDS011;494;48.744;10.106;2023-06-22T11:35:43;32.50;;;13.93;;
1010;SDS011;494;48.744;10.106;2023-06-22T11:38:12;30.43;;;13.03;;
1010;SDS011;494;48.744;10.106;2023-06-22T11:40:43;36.00;;;13.33;;
1010;SDS011;494;48.744;10.106;2023-06-22T11:43:12;31.07;;;12.90;;
1010;SDS011;494;48.744;10.106;2023-06-22T11:45:41;29.13;;;13.13;;
1010;SDS011;494;48.744;10.106;2023-06-22T11:48:12;27.73;;;12.87;;
1010;SDS011;494;48.744;10.106;2023-06-22T11:50:40;34.27;;;13.50;;
1010;SDS011;494;48.744;10.106;2023-06-22T11:53:09;28.23;;;13.00;;
1010;SDS011;494;48.744;10.106;2023-06-22T11:55:38;32.47;;;13.53;;
1010;SDS011;494;48.744;10.106;2023-06-22T11:58:09;31.73;;;13.90;;
1010;SDS011;494;48.744;10.106;2023-06-22T12:00:38;30.50;;;12.97;;
1010;SDS011;494;48.744;10.106;2023-06-22T12:03:17;30.40;;;13.23;;
1010;SDS011;494;48.744;10.106;2023-06-22T12:05:49;40.60;;;13.77;;
1010;SDS011;494;48.744;10.106;2023-06-22T12:08:19;34.53;;;13.33;;
1010;SDS011;494;48.744;10.106;2023-06-22T12:10:51;30.80;;;13.77;;
1010;SDS011;494;48.744;10.106;2023-06-22T12:13:22;26.93;;;13.70;;
1010;SDS011;494;48.744;10.106;2023-06-22T12:15:51;31.47;;;14.20;;
1010;SDS011;494;48.744;10.106;2023-06-22T12:18:20;32.33;;;14.37;;
1010;SDS011;494;48.744;10.106;2023-06-22T12:20:49;32.70;;;13.87;;
1010;SDS011;494;48.744;10.106;2023-06-22T12:23:19;32.40;;;13.30;;
1010;SDS011;494;48.744;10.106;2023-06-22T12:25:48;28.60;;;14.10;;
1010;SDS011;494;48.744;10.106;2023-06-22T12:28:19;35.10;;;14.20;;
1010;SDS011;494;48.744;10.106;2023-06-22T12:30:51;29.53;;;14.03;;
1010;SDS011;494;48.744;10.106;2023-06-22T12:33:20;35.23;;;13.80;;
1010;SDS011;494;48.744;10.106;2023-06-22T12:35:50;29.30;;;13.50;;
1010;SDS011;494;48.744;10.106;2023-06-22T12:38:18;32.70;;;12.77;;
1010;SDS011;494;48.744;10.106;2023-06-22T12:40:47;30.63;;;12.33;;
1010;SDS011;494;48.744;10.106;2023-06-22T12:43:16;28.17;;;13.37;;
1010;SDS011;494;48.744;10.106;2023-06-22T12:45:46;29.03;;;13.63;;
1010;SDS011;494;48.744;10.106;2023-06-22T12:48:17;30.30;;;13.60;;
1010;SDS011;494;48.744;10.106;2023-06-22T12:50:46;26.53;;;13.13;;
1010;SDS011;494;48.744;10.106;2023-06-22T12:53:15;34.87;;;13.43;;
1010;SDS011;494;48.744;10.106;2023-06-22T12:55:45;41.60;;;12.83;;
1010;SDS011;494;48.744;10.106;2023-06-22T12:58:14;29.33;;;13.50;;
1010;SDS011;494;48.744;10.106;2023-06-22T13:00:43;30.27;;;13.87;;
1010;SDS011;494;48.744;10.106;2023-06-22T13:03:12;31.83;;;13.73;;
1010;SDS011;494;48.744;10.106;2023-06-22T13:05:42;32.20;;;13.33;;
1010;SDS011;494;48.744;10.106;2023-06-22T13:08:12;38.80;;;14.77;;
1010;SDS011;494;48.744;10.106;2023-06-22T13:10:42;35.03;;;13.90;;
1010;SDS011;494;48.744;10.106;2023-06-22T13:13:11;31.67;;;13.47;;
1010;SDS011;494;48.744;10.106;2023-06-22T13:15:40;36.07;;;14.30;;
1010;SDS011;494;48.744;10.106;2023-06-22T13:18:10;29.97;;;14.07;;
1010;SDS011;494;48.744;10.106;2023-06-22T13:20:39;29.70;;;13.70;;
1010;SDS011;494;48.744;10.106;2023-06-22T13:23:12;34.60;;;14.43;;
1010;SDS011;494;48.744;10.106;2023-06-22T13:25:41;28.17;;;13.87;;
1010;SDS011;494;48.744;10.106;2023-06-22T13:28:10;31.37;;;13.70;;
1010;SDS011;494;48.744;10.106;2023-06-22T13:30:54;31.60;;;13.00;;
1010;SDS011;494;48.744;10.106;2023-06-22T13:33:23;31.20;;;13.40;;
1010;SDS011;494;48.744;10.106;2023-06-22T13:35:55;30.77;;;14.23;;
1010;SDS011;494;48.744;10.106;2023-06-22T13:38:24;32.30;;;13.97;;
1010;SDS011;494;48.744;10.106;2023-06-22T13:40:53;33.40;;;13.90;;
1010;SDS011;494;48.744;10.106;2023-06-22T13:43:24;31.23;;;12.90;;
1010;SDS011;494;48.744;10.106;2023-06-22T13:45:55;28.97;;;12.90;;
1010;SDS011;494;48.744;10.106;2023-06-22T13:48:25;33.23;;;14.73;;
1010;SDS011;494;48.744;10.106;2023-06-22T13:50:56;30.73;;;14.03;;
1010;SDS011;494;48.744;10.106;2023-06-22T13:53:25;27.80;;;13.23;;
1010;SDS011;494;48.744;10.106;2023-06-22T13:55:54;31.43;;;13.37;;
1010;SDS011;494;48.744;10.106;2023-06-22T13:58:23;32.77;;;13.80;;
1010;SDS011;494;48.744;10.106;2023-06-22T14:00:53;32.23;;;12.90;;
1010;SDS011;494;48.744;10.106;2023-06-22T14:03:23;31.63;;;13.17;;
1010;SDS011;494;48.744;10.106;2023-06-22T14:05:52;35.33;;;14.67;;
1010;SDS011;494;48.744;10.106;2023-06-22T14:08:24;35.00;;;17.43;;
1010;SDS011;494;48.744;10.106;2023-06-22T14:10:56;28.57;;;16.17;;
1010;SDS011;494;48.744;10.106;2023-06-22T14:13:25;35.57;;;15.43;;
1010;SDS011;494;48.744;10.106;2023-06-22T14:15:55;28.57;;;13.63;;
1010;SDS011;494;48.744;10.106;2023-06-22T14:18:23;32.10;;;13.77;;
1010;SDS011;494;48.744;10.106;2023-06-22T14:20:52;30.20;;;13.40;;
1010;SDS011;494;48.744;10.106;2023-06-22T14:23:24;33.57;;;13.03;;
1010;SDS011;494;48.744;10.106;2023-06-22T14:25:52;27.50;;;12.63;;
1010;SDS011;494;48.744;10.106;2023-06-22T14:28:22;30.37;;;13.60;;
1010;SDS011;494;48.744;10.106;2023-06-22T14:30:50;32.30;;;12.60;;
1010;SDS011;494;48.744;10.106;2023-06-22T14:33:19;32.50;;;13.07;;
1010;SDS011;494;48.744;10.106;2023-06-22T14:35:48;31.97;;;14.13;;
1010;SDS011;494;48.744;10.106;2023-06-22T14:38:17;29.50;;;14.67;;
1010;SDS011;494;48.744;10.106;2023-06-22T14:40:49;35.60;;;13.80;;
1010;SDS011;494;48.744;10.106;2023-06-22T14:43:38;31.53;;;14.00;;
1010;SDS011;494;48.744;10.106;2023-06-22T14:46:12;27.13;;;13.40;;
1010;SDS011;494;48.744;10.106;2023-06-22T14:48:41;32.40;;;13.53;;
1010;SDS011;494;48.744;10.106;2023-06-22T14:51:13;32.10;;;12.47;;
1010;SDS011;494;48.744;10.106;2023-06-22T14:53:43;33.53;;;12.33;;
1010;SDS011;494;48.744;10.106;2023-06-22T14:56:14;31.90;;;12.10;;
1010;SDS011;494;48.744;10.106;2023-06-22T14:58:44;30.30;;;10.10;;
1010;SDS011;494;48.744;10.106;2023-06-22T15:01:17;36.63;;;11.10;;
1010;SDS011;494;48.744;10.106;2023-06-22T15:03:46;27.40;;;10.27;;
1010;SDS011;494;48.744;10.106;2023-06-22T15:06:14;29.10;;;10.97;;
1010;SDS011;494;48.744;10.106;2023-06-22T15:08:44;27.90;;;11.87;;
1010;SDS011;494;48.744;10.106;2023-06-22T15:11:12;30.92;;;11.52;;